createdAt,value
2018-08-13T00:01:22.111Z,2.30
2018-08-13T00:15:39.708Z,1.27
2018-08-13T00:18:08.504Z,2.00
2018-08-13T00:20:36.584Z,1.73
2018-08-13T00:23:04.703Z,2.00
2018-08-13T00:25:33.055Z,1.90
2018-08-13T00:28:01.134Z,2.20
2018-08-13T00:30:29.211Z,1.67
2018-08-13T00:32:57.264Z,1.90
2018-08-13T00:35:25.360Z,1.67
2018-08-13T00:37:53.437Z,1.43
2018-08-13T00:40:21.516Z,1.80
2018-08-13T00:42:49.564Z,1.70
2018-08-13T00:45:17.664Z,1.90
2018-08-13T00:47:45.734Z,2.03
2018-08-13T00:50:14.907Z,1.50
2018-08-13T00:52:43.255Z,2.00
2018-08-13T00:55:13.478Z,2.27
2018-08-13T00:57:41.544Z,2.07
2018-08-13T01:00:19.769Z,1.70
2018-08-13T01:02:48.166Z,1.70
2018-08-13T01:05:17.310Z,2.13
2018-08-13T01:07:45.357Z,2.10
2018-08-13T01:10:15.759Z,2.33
2018-08-13T01:12:44.203Z,2.13
2018-08-13T01:15:13.746Z,2.57
2018-08-13T01:17:43.214Z,2.43
2018-08-13T01:20:13.553Z,2.10
2018-08-13T01:22:41.629Z,2.80
2018-08-13T01:25:11.948Z,1.77
2018-08-13T01:27:40.317Z,2.40
2018-08-13T01:30:09.559Z,2.10
2018-08-13T01:32:37.608Z,2.20
2018-08-13T01:35:05.861Z,2.33
2018-08-13T01:37:33.953Z,2.40
2018-08-13T01:40:02.021Z,2.33
2018-08-13T01:42:30.089Z,2.20
2018-08-13T01:44:58.162Z,2.30
2018-08-13T01:47:26.229Z,2.70
2018-08-13T01:49:54.298Z,3.17
2018-08-13T01:52:22.355Z,2.60
2018-08-13T01:54:50.415Z,2.63
2018-08-13T01:57:18.464Z,2.50
2018-08-13T01:59:46.539Z,2.20
2018-08-13T02:02:14.756Z,2.27
2018-08-13T02:04:43.238Z,2.90
2018-08-13T02:07:11.447Z,2.40
2018-08-13T02:09:41.333Z,2.73
2018-08-13T02:12:10.224Z,2.90
2018-08-13T02:14:38.303Z,2.43
2018-08-13T02:17:06.498Z,2.63
2018-08-13T02:19:34.590Z,3.23
2018-08-13T02:22:02.647Z,2.80
2018-08-13T02:24:30.710Z,2.90
2018-08-13T02:26:58.864Z,2.90
2018-08-13T02:29:27.481Z,3.20
2018-08-13T02:31:56.119Z,2.80
2018-08-13T02:34:24.208Z,2.63
2018-08-13T02:36:52.333Z,2.90
2018-08-13T02:39:20.532Z,2.70
2018-08-13T02:41:48.555Z,2.40
2018-08-13T02:44:16.616Z,3.03
2018-08-13T02:46:44.712Z,3.17
2018-08-13T02:49:12.782Z,2.80
2018-08-13T02:51:40.869Z,3.30
2018-08-13T02:54:08.936Z,2.40
2018-08-13T02:56:37.017Z,2.63
2018-08-13T02:59:05.131Z,3.10
2018-08-13T03:01:33.224Z,3.27
2018-08-13T03:04:01.293Z,3.13
2018-08-13T03:06:29.381Z,2.70
2018-08-13T03:08:57.456Z,3.27
2018-08-13T03:11:25.535Z,3.23
2018-08-13T03:13:53.773Z,3.03
2018-08-13T03:16:21.845Z,3.10
2018-08-13T03:18:49.947Z,2.50
2018-08-13T03:21:18.369Z,2.73
2018-08-13T03:23:46.435Z,3.20
2018-08-13T03:26:14.501Z,2.77
2018-08-13T03:28:42.535Z,3.10
2018-08-13T03:31:10.599Z,2.90
2018-08-13T03:33:38.720Z,3.07
2018-08-13T03:36:06.861Z,2.40
2018-08-13T03:38:34.914Z,2.83
2018-08-13T03:41:03.194Z,2.40
2018-08-13T03:43:31.249Z,2.30
2018-08-13T03:45:59.307Z,2.33
2018-08-13T03:48:27.355Z,2.70
2018-08-13T03:50:55.415Z,3.20
2018-08-13T03:53:23.476Z,2.63
2018-08-13T03:55:51.547Z,2.70
2018-08-13T03:58:19.650Z,2.50
2018-08-13T04:00:47.711Z,3.00
2018-08-13T04:03:15.791Z,2.67
2018-08-13T04:05:43.884Z,3.03
2018-08-13T04:08:12.013Z,2.93
2018-08-13T04:10:40.095Z,2.70
2018-08-13T04:13:08.151Z,2.43
2018-08-13T04:15:36.212Z,2.87
2018-08-13T04:18:04.451Z,2.57
2018-08-13T04:20:32.544Z,2.60
2018-08-13T04:23:00.631Z,2.63
2018-08-13T04:25:28.689Z,2.43
2018-08-13T04:27:56.755Z,2.53
2018-08-13T04:30:24.810Z,2.30
2018-08-13T04:32:52.897Z,3.03
2018-08-13T04:35:20.951Z,2.20
2018-08-13T04:37:49.016Z,2.40
2018-08-13T04:40:18.076Z,2.60
2018-08-13T04:42:47.076Z,3.00
2018-08-13T04:45:15.141Z,2.13
2018-08-13T04:47:51.469Z,2.53
2018-08-13T04:50:19.587Z,2.50
2018-08-13T04:52:47.800Z,2.90
2018-08-13T04:55:15.959Z,2.80
2018-08-13T04:57:44.132Z,3.10
2018-08-13T05:00:12.208Z,2.10
2018-08-13T05:02:40.315Z,1.80
2018-08-13T05:05:09.747Z,2.20
2018-08-13T05:07:37.950Z,2.93
2018-08-13T05:10:07.320Z,2.57
2018-08-13T05:12:35.381Z,2.10
2018-08-13T05:15:03.820Z,2.70
2018-08-13T05:17:31.899Z,2.00
2018-08-13T05:19:59.983Z,2.17
2018-08-13T05:22:28.048Z,2.23
2018-08-13T05:24:56.108Z,2.00
2018-08-13T05:27:24.179Z,1.90
2018-08-13T05:29:52.254Z,2.07
2018-08-13T05:32:20.390Z,2.37
2018-08-13T05:34:48.442Z,1.90
2018-08-13T05:37:16.553Z,2.40
2018-08-13T05:39:44.610Z,2.67
2018-08-13T05:42:12.702Z,2.07
2018-08-13T05:44:40.804Z,2.30
2018-08-13T05:47:08.895Z,2.20
2018-08-13T05:49:36.970Z,2.20
2018-08-13T05:52:05.090Z,2.67
2018-08-13T05:54:33.173Z,2.10
2018-08-13T05:57:01.244Z,2.40
2018-08-13T05:59:29.306Z,2.20
2018-08-13T06:01:57.396Z,2.73
2018-08-13T06:04:25.490Z,2.00
2018-08-13T06:06:53.559Z,2.03
2018-08-13T06:09:21.636Z,1.90
2018-08-13T06:11:49.791Z,2.30
2018-08-13T06:14:17.873Z,2.20
2018-08-13T06:16:45.958Z,2.37
2018-08-13T06:19:14.161Z,2.07
2018-08-13T06:21:42.255Z,2.33
2018-08-13T06:24:10.379Z,2.73
2018-08-13T06:26:38.417Z,3.47
2018-08-13T06:29:06.686Z,3.40
2018-08-13T06:31:34.796Z,4.30
2018-08-13T06:34:02.872Z,5.40
2018-08-13T06:36:30.998Z,3.50
2018-08-13T06:38:59.107Z,3.60
2018-08-13T06:41:27.168Z,3.83
2018-08-13T06:43:55.293Z,4.13
2018-08-13T06:46:23.311Z,4.17
2018-08-13T06:48:51.595Z,3.80
2018-08-13T06:51:19.650Z,4.03
2018-08-13T06:53:47.769Z,3.57
2018-08-13T06:56:15.803Z,4.30
2018-08-13T06:58:43.866Z,3.80
2018-08-13T07:01:11.921Z,4.17
2018-08-13T07:03:40.003Z,4.43
2018-08-13T07:06:08.116Z,5.10
2018-08-13T07:08:36.185Z,4.67
2018-08-13T07:11:04.343Z,4.50
2018-08-13T07:13:32.412Z,6.00
2018-08-13T07:16:00.505Z,4.50
2018-08-13T07:18:28.609Z,4.80
2018-08-13T07:20:56.712Z,4.20
2018-08-13T07:23:31.331Z,4.73
2018-08-13T07:25:59.432Z,3.80
2018-08-13T07:28:27.494Z,4.30
2018-08-13T07:30:55.566Z,4.90
2018-08-13T07:33:23.672Z,4.63
2018-08-13T07:35:51.728Z,4.70
2018-08-13T07:38:19.948Z,4.70
2018-08-13T07:40:48.075Z,4.93
2018-08-13T07:43:16.084Z,5.00
2018-08-13T07:45:44.163Z,4.50
2018-08-13T07:48:12.224Z,5.00
2018-08-13T07:50:40.334Z,4.70
2018-08-13T07:53:08.384Z,5.47
2018-08-13T07:55:36.444Z,5.30
2018-08-13T07:58:04.642Z,5.10
2018-08-13T08:00:32.713Z,5.00
2018-08-13T08:03:00.799Z,5.30
2018-08-13T08:05:28.860Z,5.80
2018-08-13T08:07:56.929Z,6.40
2018-08-13T08:10:25.012Z,5.43
2018-08-13T08:12:53.134Z,6.10
2018-08-13T08:15:21.211Z,5.67
2018-08-13T08:17:49.295Z,5.67
2018-08-13T08:20:17.468Z,6.47
2018-08-13T08:22:45.601Z,6.23
2018-08-13T08:25:17.252Z,6.53
2018-08-13T08:27:45.644Z,6.30
2018-08-13T08:30:13.963Z,7.30
2018-08-13T08:32:42.027Z,6.67
2018-08-13T08:35:12.568Z,6.10
2018-08-13T08:37:40.832Z,6.67
2018-08-13T08:40:10.807Z,6.33
2018-08-13T08:42:38.875Z,7.80
2018-08-13T08:45:11.652Z,5.47
2018-08-13T08:47:39.747Z,5.60
2018-08-13T08:50:08.067Z,5.10
2018-08-13T08:52:36.278Z,5.17
2018-08-13T08:55:05.597Z,6.80
2018-08-13T08:57:33.684Z,6.43
2018-08-13T09:00:01.821Z,5.80
2018-08-13T09:02:29.932Z,5.63
2018-08-13T09:04:58.019Z,5.60
2018-08-13T09:07:26.075Z,6.67
2018-08-13T09:09:54.136Z,6.50
2018-08-13T09:12:22.199Z,6.93
2018-08-13T09:14:50.271Z,6.83
2018-08-13T09:17:18.374Z,7.17
2018-08-13T09:19:57.902Z,6.60
2018-08-13T09:22:37.292Z,7.23
2018-08-13T09:25:16.744Z,7.90
2018-08-13T09:27:56.089Z,7.90
2018-08-13T09:30:35.458Z,6.90
2018-08-13T09:33:15.175Z,6.83
2018-08-13T09:35:43.335Z,7.50
2018-08-13T09:38:11.403Z,6.80
2018-08-13T09:40:39.542Z,7.00
2018-08-13T09:43:07.613Z,6.90
2018-08-13T09:45:35.697Z,7.03
2018-08-13T09:48:04.091Z,6.27
2018-08-13T09:50:32.202Z,6.80
2018-08-13T09:53:00.278Z,6.50
2018-08-13T09:55:28.393Z,6.27
2018-08-13T09:57:56.485Z,6.23
2018-08-13T10:00:30.008Z,7.00
2018-08-13T10:02:58.036Z,7.30
2018-08-13T10:05:26.260Z,6.77
2018-08-13T10:07:54.415Z,7.50
2018-08-13T10:10:22.575Z,6.00
2018-08-13T10:12:50.764Z,6.60
2018-08-13T10:15:18.897Z,6.50
2018-08-13T10:17:47.023Z,5.63
2018-08-13T10:20:19.168Z,6.13
2018-08-13T10:22:47.384Z,5.47
2018-08-13T10:25:15.461Z,7.50
2018-08-13T10:27:43.595Z,7.27
2018-08-13T10:30:13.026Z,6.60
2018-08-13T10:32:41.583Z,6.67
2018-08-13T10:35:10.060Z,7.00
2018-08-13T10:37:38.851Z,7.60
2018-08-13T10:40:09.458Z,7.33
2018-08-13T10:42:37.902Z,7.60
2018-08-13T10:45:06.124Z,8.30
2018-08-13T10:47:34.211Z,8.10
2018-08-13T10:50:02.395Z,8.37
2018-08-13T10:52:30.470Z,8.00
2018-08-13T10:54:58.562Z,8.20
2018-08-13T10:57:26.623Z,8.90
2018-08-13T10:59:54.763Z,7.60
2018-08-13T11:02:22.849Z,7.83
2018-08-13T11:04:50.923Z,8.03
2018-08-13T11:07:19.004Z,7.97
2018-08-13T11:09:47.069Z,7.67
2018-08-13T11:12:15.219Z,7.53
2018-08-13T11:14:43.284Z,6.10
2018-08-13T11:17:11.432Z,6.57
2018-08-13T11:19:39.595Z,5.83
2018-08-13T11:22:07.658Z,6.43
2018-08-13T11:24:35.723Z,6.30
2018-08-13T11:27:03.778Z,5.63
2018-08-13T11:29:31.846Z,6.90
2018-08-13T11:31:59.905Z,6.53
2018-08-13T11:34:27.951Z,6.53
2018-08-13T11:36:56.026Z,6.33
2018-08-13T11:39:24.091Z,6.00
2018-08-13T11:41:52.413Z,6.60
2018-08-13T11:44:20.456Z,6.23
2018-08-13T11:46:48.545Z,6.37
2018-08-13T11:49:16.631Z,6.73
2018-08-13T11:51:44.718Z,4.87
2018-08-13T11:54:12.824Z,4.80
2018-08-13T11:56:40.891Z,5.37
2018-08-13T11:59:08.952Z,4.67
2018-08-13T12:01:37.030Z,5.73
2018-08-13T12:04:05.100Z,5.40
2018-08-13T12:06:33.158Z,4.60
2018-08-13T12:09:01.224Z,5.20
2018-08-13T12:11:29.300Z,5.33
2018-08-13T12:13:57.340Z,5.67
2018-08-13T12:16:25.400Z,5.00
2018-08-13T12:18:53.487Z,4.80
2018-08-13T12:21:21.602Z,4.90
2018-08-13T12:23:49.630Z,4.57
2018-08-13T12:26:17.705Z,4.80
2018-08-13T12:28:45.762Z,3.70
2018-08-13T12:31:13.806Z,4.17
2018-08-13T12:33:41.861Z,4.40
2018-08-13T12:36:09.920Z,4.10
2018-08-13T12:38:38.020Z,4.90
2018-08-13T12:41:06.171Z,5.03
2018-08-13T12:43:34.193Z,5.10
2018-08-13T12:46:02.268Z,4.40
2018-08-13T12:48:30.328Z,4.70
2018-08-13T12:50:58.439Z,6.13
2018-08-13T12:53:26.439Z,4.93
2018-08-13T12:55:54.487Z,6.03
2018-08-13T12:58:22.553Z,5.90
2018-08-13T13:00:55.867Z,5.63
2018-08-13T13:03:23.991Z,5.67
2018-08-13T13:05:52.050Z,4.40
2018-08-13T13:08:20.111Z,4.93
2018-08-13T13:10:48.193Z,4.40
2018-08-13T13:13:16.256Z,4.77
2018-08-13T13:15:44.334Z,4.20
2018-08-13T13:18:12.457Z,2.90
2018-08-13T13:20:40.566Z,3.10
2018-08-13T13:23:08.636Z,2.33
2018-08-13T13:25:36.695Z,1.97
2018-08-13T13:28:04.790Z,2.10
2018-08-13T13:30:32.911Z,2.33
2018-08-13T13:33:00.998Z,2.37
2018-08-13T13:35:29.043Z,2.23
2018-08-13T13:37:57.108Z,1.90
2018-08-13T13:40:25.264Z,2.30
2018-08-13T13:42:53.235Z,2.37
2018-08-13T13:45:21.278Z,2.07
2018-08-13T13:47:49.351Z,2.23
2018-08-13T13:50:18.527Z,1.87
2018-08-13T13:52:46.673Z,2.30
2018-08-13T13:55:15.084Z,2.00
2018-08-13T13:57:43.356Z,1.63
2018-08-13T14:00:17.380Z,1.20
2018-08-13T14:02:46.267Z,1.60
2018-08-13T14:05:14.407Z,1.30
2018-08-13T14:07:42.550Z,1.43
2018-08-13T14:10:13.119Z,1.37
2018-08-13T14:12:41.176Z,1.27
2018-08-13T14:15:11.080Z,1.47
2018-08-13T14:17:39.236Z,2.10
2018-08-13T14:20:08.199Z,1.60
2018-08-13T14:22:36.266Z,1.80
2018-08-13T14:25:05.359Z,1.40
2018-08-13T14:27:33.435Z,1.70
2018-08-13T14:30:01.524Z,1.40
2018-08-13T14:32:29.772Z,1.90
2018-08-13T14:34:57.831Z,2.00
2018-08-13T14:37:25.907Z,1.83
2018-08-13T14:39:54.075Z,1.97
2018-08-13T14:42:22.041Z,1.50
2018-08-13T14:44:50.111Z,1.70
2018-08-13T14:47:18.164Z,2.13
2018-08-13T14:49:46.216Z,2.17
2018-08-13T14:52:14.279Z,1.43
2018-08-13T14:54:42.342Z,1.83
2018-08-13T14:57:10.376Z,1.60
2018-08-13T14:59:38.455Z,2.27
2018-08-13T15:02:06.528Z,2.20
2018-08-13T15:04:34.634Z,1.70
2018-08-13T15:07:02.911Z,1.80
2018-08-13T15:09:31.291Z,1.77
2018-08-13T15:11:59.370Z,2.00
2018-08-13T15:14:27.439Z,2.00
2018-08-13T15:19:56.934Z,1.60
2018-08-13T15:22:25.054Z,1.57
2018-08-13T15:24:53.150Z,1.80
2018-08-13T15:27:21.358Z,1.30
2018-08-13T15:29:49.308Z,1.73
2018-08-13T15:32:17.400Z,1.60
2018-08-13T15:34:45.460Z,1.80
2018-08-13T15:37:13.574Z,1.57
2018-08-13T15:39:41.628Z,1.60
2018-08-13T15:42:09.708Z,1.50
2018-08-13T15:44:37.756Z,1.30
2018-08-13T15:47:05.919Z,1.40
2018-08-13T15:49:34.120Z,1.40
2018-08-13T15:52:02.263Z,1.50
2018-08-13T15:54:30.347Z,1.60
2018-08-13T15:56:58.692Z,1.70
2018-08-13T15:59:26.960Z,1.53
2018-08-13T16:01:57.072Z,2.00
2018-08-13T16:04:26.141Z,2.10
2018-08-13T16:06:55.295Z,1.30
2018-08-13T16:09:24.863Z,1.37
2018-08-13T16:11:53.248Z,1.40
2018-08-13T16:14:22.985Z,1.30
2018-08-13T16:16:51.345Z,1.10
2018-08-13T16:19:20.652Z,1.47
2018-08-13T16:21:49.474Z,1.30
2018-08-13T16:24:18.904Z,1.77
2018-08-13T16:26:52.268Z,1.40
2018-08-13T16:29:22.882Z,1.17
2018-08-13T16:31:51.474Z,1.73
2018-08-13T16:34:19.887Z,7.43
2018-08-13T16:48:50.078Z,1.67
2018-08-13T16:51:18.126Z,1.73
2018-08-13T16:53:46.207Z,1.23
2018-08-13T16:56:14.368Z,1.40
2018-08-13T16:58:42.431Z,1.53
2018-08-13T17:01:10.542Z,1.10
2018-08-13T17:03:38.643Z,1.90
2018-08-13T17:06:06.707Z,1.47
2018-08-13T17:08:34.771Z,1.43
2018-08-13T17:11:05.811Z,1.40
2018-08-13T17:13:33.955Z,1.27
2018-08-13T17:16:02.019Z,1.63
2018-08-13T17:18:30.083Z,1.50
2018-08-13T17:20:58.192Z,1.70
2018-08-13T17:23:26.260Z,1.33
2018-08-13T17:25:54.359Z,1.70
2018-08-13T17:28:22.506Z,1.70
2018-08-13T17:30:57.087Z,1.60
2018-08-13T17:33:25.200Z,1.80
2018-08-13T17:35:53.288Z,1.70
2018-08-13T17:38:21.592Z,1.40
2018-08-13T17:40:49.691Z,1.60
2018-08-13T17:43:17.851Z,1.67
2018-08-13T17:45:45.835Z,1.47
2018-08-13T17:48:13.895Z,1.77
2018-08-13T17:50:41.981Z,1.57
2018-08-13T17:53:10.703Z,1.60
2018-08-13T17:55:38.839Z,1.40
2018-08-13T17:58:06.990Z,2.60
2018-08-13T18:00:35.094Z,1.87
2018-08-13T18:03:03.203Z,1.77
2018-08-13T18:05:31.322Z,1.27
2018-08-13T18:07:59.495Z,3.13
2018-08-13T18:10:29.202Z,2.23
2018-08-13T18:12:58.615Z,1.70
2018-08-13T18:15:26.720Z,1.40
2018-08-13T18:17:54.839Z,1.40
2018-08-13T18:20:22.904Z,0.90
2018-08-13T18:22:50.978Z,0.67
2018-08-13T18:25:19.106Z,0.90
2018-08-13T18:27:48.472Z,0.60
2018-08-13T18:30:18.160Z,0.50
2018-08-13T18:32:46.219Z,0.80
2018-08-13T18:35:14.549Z,0.70
2018-08-13T18:37:42.812Z,0.70
2018-08-13T18:40:16.440Z,0.63
2018-08-13T18:42:44.630Z,0.60
2018-08-13T18:45:12.806Z,0.70
2018-08-13T18:47:40.895Z,0.77
2018-08-13T18:50:11.270Z,0.90
2018-08-13T18:52:39.496Z,0.77
2018-08-13T18:55:08.162Z,0.70
2018-08-13T18:57:36.283Z,1.03
2018-08-13T19:00:07.242Z,0.60
2018-08-13T19:02:35.372Z,0.80
2018-08-13T19:05:03.416Z,0.70
2018-08-13T19:07:31.542Z,0.80
2018-08-13T19:09:59.619Z,0.87
2018-08-13T19:12:27.701Z,0.80
2018-08-13T19:14:55.799Z,1.10
2018-08-13T19:17:23.975Z,0.70
2018-08-13T19:19:52.053Z,0.70
2018-08-13T19:22:23.409Z,0.90
2018-08-13T19:24:51.515Z,0.60
2018-08-13T19:27:19.691Z,0.60
2018-08-13T19:29:47.781Z,0.70
2018-08-13T19:32:15.915Z,0.70
2018-08-13T19:34:43.991Z,0.80
2018-08-13T19:37:12.085Z,0.90
2018-08-13T19:39:40.188Z,0.90
2018-08-13T19:42:10.358Z,0.90
2018-08-13T19:44:39.105Z,0.63
2018-08-13T19:47:07.574Z,0.70
2018-08-13T19:49:36.073Z,0.80
2018-08-13T19:52:09.125Z,0.70
2018-08-13T19:54:37.809Z,0.80
2018-08-13T19:57:06.876Z,0.57
2018-08-13T19:59:35.870Z,1.23
2018-08-13T20:02:04.128Z,0.80
2018-08-13T20:04:32.801Z,0.80
2018-08-13T20:07:00.985Z,1.00
2018-08-13T20:09:29.232Z,0.90
2018-08-13T20:12:00.915Z,0.80
2018-08-13T20:14:29.264Z,0.70
2018-08-13T20:16:58.949Z,0.80
2018-08-13T20:19:29.435Z,0.90
2018-08-13T20:21:57.889Z,1.00
2018-08-13T20:24:29.338Z,1.27
2018-08-13T20:26:58.093Z,0.70
2018-08-13T20:29:27.474Z,0.70
2018-08-13T20:31:55.716Z,0.80
2018-08-13T20:34:23.911Z,1.00
2018-08-13T20:36:52.202Z,1.03
2018-08-13T20:39:20.384Z,1.00
2018-08-13T20:41:48.629Z,0.90
2018-08-13T20:44:17.232Z,1.30
2018-08-13T20:46:46.107Z,1.10
2018-08-13T20:49:14.301Z,1.03
2018-08-13T20:51:43.758Z,1.27
2018-08-13T20:54:12.401Z,0.77
2018-08-13T20:59:21.072Z,1.00
2018-08-13T21:01:49.280Z,0.80
2018-08-13T21:04:18.604Z,1.10
2018-08-13T21:06:47.387Z,1.27
2018-08-13T21:09:16.657Z,1.00
2018-08-13T21:11:44.827Z,0.90
2018-08-13T21:14:13.840Z,1.27
2018-08-13T21:16:42.534Z,1.00
2018-08-13T21:19:10.786Z,1.00
2018-08-13T21:21:39.309Z,0.93
2018-08-13T21:24:07.530Z,1.17
2018-08-13T21:26:35.887Z,1.00
2018-08-13T21:29:04.183Z,1.10
2018-08-13T21:31:32.486Z,1.00
2018-08-13T21:34:00.729Z,1.03
2018-08-13T21:36:29.120Z,1.37
2018-08-13T21:38:57.390Z,1.00
2018-08-13T21:41:25.857Z,1.30
2018-08-13T21:43:56.406Z,0.80
2018-08-13T21:46:24.751Z,1.07
2018-08-13T21:48:53.352Z,1.20
2018-08-13T21:51:21.709Z,1.10
2018-08-13T21:53:50.150Z,1.30
2018-08-13T21:56:18.317Z,1.13
2018-08-13T21:58:47.195Z,0.80
2018-08-13T22:01:20.969Z,1.00
2018-08-13T22:03:50.935Z,1.20
2018-08-13T22:06:19.192Z,0.90
2018-08-13T22:08:47.594Z,0.87
2018-08-13T22:11:15.997Z,1.00
2018-08-13T22:13:44.529Z,1.00
2018-08-13T22:16:12.772Z,1.13
2018-08-13T22:18:41.071Z,1.10
2018-08-13T22:21:09.371Z,0.87
2018-08-13T22:23:47.569Z,1.30
2018-08-13T22:26:15.776Z,1.10
2018-08-13T22:28:44.050Z,1.30
2018-08-13T22:31:13.648Z,1.27
2018-08-13T22:33:41.719Z,1.03
2018-08-13T22:36:09.882Z,1.47
2018-08-13T22:38:37.978Z,1.17
2018-08-13T22:41:06.421Z,1.27
2018-08-13T22:43:34.527Z,1.30
2018-08-13T22:46:02.601Z,1.40
2018-08-13T22:48:30.845Z,1.23
2018-08-13T22:50:58.939Z,1.40
2018-08-13T22:53:27.048Z,1.50
2018-08-13T22:55:55.183Z,1.30
2018-08-13T22:58:23.283Z,1.40
2018-08-13T23:00:51.432Z,1.07
2018-08-13T23:03:19.640Z,1.30
2018-08-13T23:05:47.727Z,1.30
2018-08-13T23:08:15.817Z,1.50
2018-08-13T23:10:43.864Z,1.40
2018-08-13T23:13:16.235Z,1.20
2018-08-13T23:15:44.311Z,1.37
2018-08-13T23:18:12.376Z,1.40
2018-08-13T23:20:40.464Z,1.40
2018-08-13T23:23:08.812Z,1.00
2018-08-13T23:25:37.496Z,1.20
2018-08-13T23:28:07.738Z,1.20
2018-08-13T23:30:35.805Z,1.23
2018-08-13T23:33:04.057Z,1.60
2018-08-13T23:35:32.612Z,1.63
2018-08-13T23:38:00.662Z,1.30
2018-08-13T23:40:28.886Z,1.20
2018-08-13T23:42:57.028Z,1.47
2018-08-13T23:45:27.630Z,1.20
2018-08-13T23:47:55.711Z,1.63
2018-08-13T23:50:24.770Z,1.20
2018-08-13T23:52:54.832Z,1.20
2018-08-13T23:55:26.636Z,1.30
2018-08-13T23:57:54.954Z,1.37
